sensor_id;sensor_type;location;lat;lon;timestamp;temperature;humidity
26655;DHT22;14278;50.784;4.630;2023-04-25T00:02:19;10.70;99.90
26655;DHT22;14278;50.784;4.630;2023-04-25T00:04:45;11.00;99.90
26655;DHT22;14278;50.784;4.630;2023-04-25T00:07:11;11.00;99.90
26655;DHT22;14278;50.784;4.630;2023-04-25T00:09:38;10.80;99.90
26655;DHT22;14278;50.784;4.630;2023-04-25T00:12:04;10.80;99.90
26655;DHT22;14278;50.784;4.630;2023-04-25T00:14:30;10.70;99.90
26655;DHT22;14278;50.784;4.630;2023-04-25T00:16:58;11.00;99.90
26655;DHT22;14278;50.784;4.630;2023-04-25T00:19:25;10.90;99.90
26655;DHT22;14278;50.784;4.630;2023-04-25T00:21:52;10.50;99.90
26655;DHT22;14278;50.784;4.630;2023-04-25T00:24:19;10.30;99.90
26655;DHT22;14278;50.784;4.630;2023-04-25T00:26:45;10.30;99.90
26655;DHT22;14278;50.784;4.630;2023-04-25T00:29:11;10.20;99.90
26655;DHT22;14278;50.784;4.630;2023-04-25T00:31:36;10.20;99.90
26655;DHT22;14278;50.784;4.630;2023-04-25T00:34:02;10.10;99.90
26655;DHT22;14278;50.784;4.630;2023-04-25T00:36:28;10.20;99.90
26655;DHT22;14278;50.784;4.630;2023-04-25T00:38:54;10.40;99.90
26655;DHT22;14278;50.784;4.630;2023-04-25T00:41:20;10.70;99.90
26655;DHT22;14278;50.784;4.630;2023-04-25T00:43:48;10.90;99.90
26655;DHT22;14278;50.784;4.630;2023-04-25T00:46:14;10.90;99.90
26655;DHT22;14278;50.784;4.630;2023-04-25T00:48:40;11.00;99.90
26655;DHT22;14278;50.784;4.630;2023-04-25T00:51:06;11.20;99.90
26655;DHT22;14278;50.784;4.630;2023-04-25T00:53:32;11.00;99.90
26655;DHT22;14278;50.784;4.630;2023-04-25T00:55:58;10.70;99.90
26655;DHT22;14278;50.784;4.630;2023-04-25T00:58:24;10.60;99.90
26655;DHT22;14278;50.784;4.630;2023-04-25T01:00:51;10.90;99.90
26655;DHT22;14278;50.784;4.630;2023-04-25T01:03:18;11.00;99.90
26655;DHT22;14278;50.784;4.630;2023-04-25T01:05:46;11.10;99.90
26655;DHT22;14278;50.784;4.630;2023-04-25T01:08:12;11.20;99.90
26655;DHT22;14278;50.784;4.630;2023-04-25T01:10:38;11.10;99.90
26655;DHT22;14278;50.784;4.630;2023-04-25T01:13:06;11.00;99.90
26655;DHT22;14278;50.784;4.630;2023-04-25T01:15:32;10.80;99.90
26655;DHT22;14278;50.784;4.630;2023-04-25T01:17:58;10.90;99.90
26655;DHT22;14278;50.784;4.630;2023-04-25T01:20:24;10.90;99.90
26655;DHT22;14278;50.784;4.630;2023-04-25T01:22:52;10.80;99.90
26655;DHT22;14278;50.784;4.630;2023-04-25T01:25:19;10.70;99.90
26655;DHT22;14278;50.784;4.630;2023-04-25T01:27:46;10.70;99.90
26655;DHT22;14278;50.784;4.630;2023-04-25T01:30:13;10.70;99.90
26655;DHT22;14278;50.784;4.630;2023-04-25T01:32:40;10.80;99.90
26655;DHT22;14278;50.784;4.630;2023-04-25T01:35:09;10.80;99.90
26655;DHT22;14278;50.784;4.630;2023-04-25T01:40:04;10.80;99.90
26655;DHT22;14278;50.784;4.630;2023-04-25T01:42:32;10.90;99.90
26655;DHT22;14278;50.784;4.630;2023-04-25T01:44:58;10.80;99.90
26655;DHT22;14278;50.784;4.630;2023-04-25T01:47:24;10.60;99.90
26655;DHT22;14278;50.784;4.630;2023-04-25T01:49:50;10.60;99.90
26655;DHT22;14278;50.784;4.630;2023-04-25T01:52:16;10.70;99.90
26655;DHT22;14278;50.784;4.630;2023-04-25T01:54:42;10.80;99.90
26655;DHT22;14278;50.784;4.630;2023-04-25T01:57:12;10.90;99.90
26655;DHT22;14278;50.784;4.630;2023-04-25T01:59:38;10.80;99.90
26655;DHT22;14278;50.784;4.630;2023-04-25T02:02:04;10.30;99.90
26655;DHT22;14278;50.784;4.630;2023-04-25T02:04:30;10.00;99.90
26655;DHT22;14278;50.784;4.630;2023-04-25T02:06:56;10.30;99.90
26655;DHT22;14278;50.784;4.630;2023-04-25T02:09:22;10.30;99.90
26655;DHT22;14278;50.784;4.630;2023-04-25T02:11:48;10.60;99.90
26655;DHT22;14278;50.784;4.630;2023-04-25T02:14:14;10.80;99.90
26655;DHT22;14278;50.784;4.630;2023-04-25T02:16:40;10.70;99.90
26655;DHT22;14278;50.784;4.630;2023-04-25T02:19:06;10.50;99.90
26655;DHT22;14278;50.784;4.630;2023-04-25T02:21:32;10.50;99.90
26655;DHT22;14278;50.784;4.630;2023-04-25T02:24:01;10.50;99.90
26655;DHT22;14278;50.784;4.630;2023-04-25T02:26:27;10.70;99.90
26655;DHT22;14278;50.784;4.630;2023-04-25T02:28:53;10.90;99.90
26655;DHT22;14278;50.784;4.630;2023-04-25T02:31:19;10.50;99.90
26655;DHT22;14278;50.784;4.630;2023-04-25T02:33:45;10.50;99.90
26655;DHT22;14278;50.784;4.630;2023-04-25T02:36:11;10.60;99.90
26655;DHT22;14278;50.784;4.630;2023-04-25T02:38:37;10.60;99.90
26655;DHT22;14278;50.784;4.630;2023-04-25T02:41:03;10.60;99.90
26655;DHT22;14278;50.784;4.630;2023-04-25T02:43:28;10.40;99.90
26655;DHT22;14278;50.784;4.630;2023-04-25T02:45:55;10.70;99.90
26655;DHT22;14278;50.784;4.630;2023-04-25T02:48:20;10.50;99.90
26655;DHT22;14278;50.784;4.630;2023-04-25T02:50:47;10.20;99.90
26655;DHT22;14278;50.784;4.630;2023-04-25T02:53:12;10.30;99.90
26655;DHT22;14278;50.784;4.630;2023-04-25T02:55:38;10.00;99.90
26655;DHT22;14278;50.784;4.630;2023-04-25T02:58:05;10.00;99.90
26655;DHT22;14278;50.784;4.630;2023-04-25T03:00:30;10.00;99.90
26655;DHT22;14278;50.784;4.630;2023-04-25T03:02:57;10.10;99.90
26655;DHT22;14278;50.784;4.630;2023-04-25T03:05:22;9.30;99.90
26655;DHT22;14278;50.784;4.630;2023-04-25T03:07:48;9.30;99.90
26655;DHT22;14278;50.784;4.630;2023-04-25T03:10:14;9.40;99.90
26655;DHT22;14278;50.784;4.630;2023-04-25T03:12:40;9.70;99.90
26655;DHT22;14278;50.784;4.630;2023-04-25T03:15:06;9.70;99.90
26655;DHT22;14278;50.784;4.630;2023-04-25T03:17:32;9.60;99.90
26655;DHT22;14278;50.784;4.630;2023-04-25T03:19:58;9.40;99.90
26655;DHT22;14278;50.784;4.630;2023-04-25T03:22:24;9.00;99.90
26655;DHT22;14278;50.784;4.630;2023-04-25T03:24:50;9.10;99.90
26655;DHT22;14278;50.784;4.630;2023-04-25T03:27:17;8.90;99.90
26655;DHT22;14278;50.784;4.630;2023-04-25T03:29:42;8.90;99.90
26655;DHT22;14278;50.784;4.630;2023-04-25T03:32:08;9.00;99.90
26655;DHT22;14278;50.784;4.630;2023-04-25T03:34:34;9.00;99.90
26655;DHT22;14278;50.784;4.630;2023-04-25T03:37:00;8.90;99.90
26655;DHT22;14278;50.784;4.630;2023-04-25T03:39:27;9.00;99.90
26655;DHT22;14278;50.784;4.630;2023-04-25T03:41:52;9.20;99.90
26655;DHT22;14278;50.784;4.630;2023-04-25T03:44:18;9.60;99.90
26655;DHT22;14278;50.784;4.630;2023-04-25T03:46:44;9.90;99.90
26655;DHT22;14278;50.784;4.630;2023-04-25T03:49:09;10.10;99.90
26655;DHT22;14278;50.784;4.630;2023-04-25T03:51:36;9.90;99.90
26655;DHT22;14278;50.784;4.630;2023-04-25T03:54:01;10.10;99.90
26655;DHT22;14278;50.784;4.630;2023-04-25T03:56:27;10.00;99.90
26655;DHT22;14278;50.784;4.630;2023-04-25T03:58:53;10.00;99.90
26655;DHT22;14278;50.784;4.630;2023-04-25T04:01:19;10.20;99.90
26655;DHT22;14278;50.784;4.630;2023-04-25T04:03:45;9.90;99.90
26655;DHT22;14278;50.784;4.630;2023-04-25T04:06:11;10.20;99.90
26655;DHT22;14278;50.784;4.630;2023-04-25T04:08:36;9.80;99.90
26655;DHT22;14278;50.784;4.630;2023-04-25T04:11:02;10.00;99.90
26655;DHT22;14278;50.784;4.630;2023-04-25T04:13:28;10.00;99.90
26655;DHT22;14278;50.784;4.630;2023-04-25T04:15:55;9.60;99.90
26655;DHT22;14278;50.784;4.630;2023-04-25T04:18:22;9.40;99.90
26655;DHT22;14278;50.784;4.630;2023-04-25T04:20:48;9.20;99.90
26655;DHT22;14278;50.784;4.630;2023-04-25T04:23:13;9.50;99.90
26655;DHT22;14278;50.784;4.630;2023-04-25T04:25:39;9.70;99.90
26655;DHT22;14278;50.784;4.630;2023-04-25T04:28:06;9.70;99.90
26655;DHT22;14278;50.784;4.630;2023-04-25T04:30:32;9.60;99.90
26655;DHT22;14278;50.784;4.630;2023-04-25T04:33:01;9.40;99.90
26655;DHT22;14278;50.784;4.630;2023-04-25T04:35:27;9.30;99.90
26655;DHT22;14278;50.784;4.630;2023-04-25T04:37:53;9.20;99.90
26655;DHT22;14278;50.784;4.630;2023-04-25T04:40:21;9.30;99.90
26655;DHT22;14278;50.784;4.630;2023-04-25T04:42:47;9.50;99.90
26655;DHT22;14278;50.784;4.630;2023-04-25T04:45:14;9.50;99.90
26655;DHT22;14278;50.784;4.630;2023-04-25T04:47:40;9.70;99.90
26655;DHT22;14278;50.784;4.630;2023-04-25T04:50:09;9.60;99.90
26655;DHT22;14278;50.784;4.630;2023-04-25T04:52:38;9.90;99.90
26655;DHT22;14278;50.784;4.630;2023-04-25T04:55:05;9.80;99.90
26655;DHT22;14278;50.784;4.630;2023-04-25T04:57:31;9.80;99.90
26655;DHT22;14278;50.784;4.630;2023-04-25T04:59:58;9.70;99.90
26655;DHT22;14278;50.784;4.630;2023-04-25T05:02:24;9.40;99.90
26655;DHT22;14278;50.784;4.630;2023-04-25T05:04:51;9.60;99.90
26655;DHT22;14278;50.784;4.630;2023-04-25T05:07:17;9.60;99.90
26655;DHT22;14278;50.784;4.630;2023-04-25T05:09:43;9.70;99.90
26655;DHT22;14278;50.784;4.630;2023-04-25T05:12:09;9.80;99.90
26655;DHT22;14278;50.784;4.630;2023-04-25T05:14:35;9.80;99.90
26655;DHT22;14278;50.784;4.630;2023-04-25T05:17:01;9.90;99.90
26655;DHT22;14278;50.784;4.630;2023-04-25T05:19:30;9.80;99.90
26655;DHT22;14278;50.784;4.630;2023-04-25T05:21:56;10.10;99.90
26655;DHT22;14278;50.784;4.630;2023-04-25T05:24:21;10.10;99.90
26655;DHT22;14278;50.784;4.630;2023-04-25T05:26:47;10.20;99.90
26655;DHT22;14278;50.784;4.630;2023-04-25T05:29:13;9.90;99.90
26655;DHT22;14278;50.784;4.630;2023-04-25T05:31:39;10.00;99.90
26655;DHT22;14278;50.784;4.630;2023-04-25T05:34:05;9.70;99.90
26655;DHT22;14278;50.784;4.630;2023-04-25T05:36:31;9.80;99.90
26655;DHT22;14278;50.784;4.630;2023-04-25T05:38:58;9.90;99.90
26655;DHT22;14278;50.784;4.630;2023-04-25T05:41:24;9.90;99.90
26655;DHT22;14278;50.784;4.630;2023-04-25T05:43:49;9.90;99.90
26655;DHT22;14278;50.784;4.630;2023-04-25T05:46:15;9.80;99.90
26655;DHT22;14278;50.784;4.630;2023-04-25T05:48:43;9.70;99.90
26655;DHT22;14278;50.784;4.630;2023-04-25T05:51:09;9.90;99.90
26655;DHT22;14278;50.784;4.630;2023-04-25T05:53:35;10.20;99.90
26655;DHT22;14278;50.784;4.630;2023-04-25T05:56:01;10.30;99.90
26655;DHT22;14278;50.784;4.630;2023-04-25T05:58:27;10.30;99.90
26655;DHT22;14278;50.784;4.630;2023-04-25T06:00:53;10.40;99.90
26655;DHT22;14278;50.784;4.630;2023-04-25T06:03:18;10.50;99.90
26655;DHT22;14278;50.784;4.630;2023-04-25T06:05:44;10.60;99.90
26655;DHT22;14278;50.784;4.630;2023-04-25T06:08:10;10.50;99.90
26655;DHT22;14278;50.784;4.630;2023-04-25T06:10:36;10.30;99.90
26655;DHT22;14278;50.784;4.630;2023-04-25T06:13:03;10.50;99.90
26655;DHT22;14278;50.784;4.630;2023-04-25T06:15:29;10.50;99.90
26655;DHT22;14278;50.784;4.630;2023-04-25T06:17:55;10.30;99.90
26655;DHT22;14278;50.784;4.630;2023-04-25T06:20:21;9.90;99.90
26655;DHT22;14278;50.784;4.630;2023-04-25T06:22:49;10.00;99.90
26655;DHT22;14278;50.784;4.630;2023-04-25T06:25:15;10.10;99.90
26655;DHT22;14278;50.784;4.630;2023-04-25T06:27:41;10.20;99.90
26655;DHT22;14278;50.784;4.630;2023-04-25T06:30:08;10.30;99.90
26655;DHT22;14278;50.784;4.630;2023-04-25T06:32:34;10.40;99.90
26655;DHT22;14278;50.784;4.630;2023-04-25T06:35:00;10.60;99.90
26655;DHT22;14278;50.784;4.630;2023-04-25T06:37:26;10.80;99.90
26655;DHT22;14278;50.784;4.630;2023-04-25T06:39:52;10.80;99.90
26655;DHT22;14278;50.784;4.630;2023-04-25T06:42:18;10.70;99.90
26655;DHT22;14278;50.784;4.630;2023-04-25T06:44:44;10.60;99.90
26655;DHT22;14278;50.784;4.630;2023-04-25T06:47:09;10.40;99.90
26655;DHT22;14278;50.784;4.630;2023-04-25T06:49:35;10.40;99.90
26655;DHT22;14278;50.784;4.630;2023-04-25T06:52:01;10.80;99.90
26655;DHT22;14278;50.784;4.630;2023-04-25T06:54:27;10.40;99.90
26655;DHT22;14278;50.784;4.630;2023-04-25T06:56:55;10.80;99.90
26655;DHT22;14278;50.784;4.630;2023-04-25T06:59:21;11.30;99.90
26655;DHT22;14278;50.784;4.630;2023-04-25T07:01:47;11.40;99.90
26655;DHT22;14278;50.784;4.630;2023-04-25T07:04:13;11.00;99.90
26655;DHT22;14278;50.784;4.630;2023-04-25T07:06:39;11.20;99.90
26655;DHT22;14278;50.784;4.630;2023-04-25T07:09:08;11.70;99.90
26655;DHT22;14278;50.784;4.630;2023-04-25T07:11:36;12.10;99.90
26655;DHT22;14278;50.784;4.630;2023-04-25T07:14:02;12.20;99.90
26655;DHT22;14278;50.784;4.630;2023-04-25T07:16:28;12.70;99.90
26655;DHT22;14278;50.784;4.630;2023-04-25T07:18:54;12.50;99.90
26655;DHT22;14278;50.784;4.630;2023-04-25T07:21:20;12.70;99.90
26655;DHT22;14278;50.784;4.630;2023-04-25T07:23:45;12.50;99.90
26655;DHT22;14278;50.784;4.630;2023-04-25T07:26:12;12.30;99.90
26655;DHT22;14278;50.784;4.630;2023-04-25T07:28:38;12.60;99.90
26655;DHT22;14278;50.784;4.630;2023-04-25T07:31:04;12.30;99.90
26655;DHT22;14278;50.784;4.630;2023-04-25T07:33:30;12.00;99.90
26655;DHT22;14278;50.784;4.630;2023-04-25T07:35:56;12.20;99.90
26655;DHT22;14278;50.784;4.630;2023-04-25T07:38:22;12.60;99.90
26655;DHT22;14278;50.784;4.630;2023-04-25T07:40:49;12.50;99.90
26655;DHT22;14278;50.784;4.630;2023-04-25T07:43:15;12.60;99.90
26655;DHT22;14278;50.784;4.630;2023-04-25T07:45:45;12.30;99.90
26655;DHT22;14278;50.784;4.630;2023-04-25T07:48:16;12.10;99.90
26655;DHT22;14278;50.784;4.630;2023-04-25T07:50:42;12.40;99.90
26655;DHT22;14278;50.784;4.630;2023-04-25T07:53:08;12.30;99.90
26655;DHT22;14278;50.784;4.630;2023-04-25T07:55:34;12.60;99.90
26655;DHT22;14278;50.784;4.630;2023-04-25T07:58:01;12.00;99.90
26655;DHT22;14278;50.784;4.630;2023-04-25T08:00:28;12.30;99.90
26655;DHT22;14278;50.784;4.630;2023-04-25T08:02:54;12.50;99.90
26655;DHT22;14278;50.784;4.630;2023-04-25T08:05:20;12.90;99.90
26655;DHT22;14278;50.784;4.630;2023-04-25T08:07:46;13.10;99.90
26655;DHT22;14278;50.784;4.630;2023-04-25T08:10:12;13.60;99.90
26655;DHT22;14278;50.784;4.630;2023-04-25T08:12:38;13.40;99.90
26655;DHT22;14278;50.784;4.630;2023-04-25T08:15:04;13.90;99.90
26655;DHT22;14278;50.784;4.630;2023-04-25T08:17:30;14.10;99.90
26655;DHT22;14278;50.784;4.630;2023-04-25T08:19:57;14.70;99.90
26655;DHT22;14278;50.784;4.630;2023-04-25T08:22:22;14.70;99.90
26655;DHT22;14278;50.784;4.630;2023-04-25T08:24:48;15.00;99.90
26655;DHT22;14278;50.784;4.630;2023-04-25T08:27:14;14.90;99.90
26655;DHT22;14278;50.784;4.630;2023-04-25T08:29:41;13.70;99.90
26655;DHT22;14278;50.784;4.630;2023-04-25T08:32:07;14.40;99.90
26655;DHT22;14278;50.784;4.630;2023-04-25T08:34:33;14.50;99.90
26655;DHT22;14278;50.784;4.630;2023-04-25T08:36:59;14.60;99.90
26655;DHT22;14278;50.784;4.630;2023-04-25T08:39:25;14.50;99.90
26655;DHT22;14278;50.784;4.630;2023-04-25T08:41:51;14.00;99.90
26655;DHT22;14278;50.784;4.630;2023-04-25T08:44:19;13.40;99.90
26655;DHT22;14278;50.784;4.630;2023-04-25T08:46:47;12.70;99.90
26655;DHT22;14278;50.784;4.630;2023-04-25T08:49:17;12.50;99.90
26655;DHT22;14278;50.784;4.630;2023-04-25T08:51:45;12.40;99.90
26655;DHT22;14278;50.784;4.630;2023-04-25T08:54:16;12.20;99.90
26655;DHT22;14278;50.784;4.630;2023-04-25T08:56:45;12.00;99.90
26655;DHT22;14278;50.784;4.630;2023-04-25T08:59:13;12.20;99.90
26655;DHT22;14278;50.784;4.630;2023-04-25T09:01:39;12.10;99.90
26655;DHT22;14278;50.784;4.630;2023-04-25T09:04:05;11.20;99.90
26655;DHT22;14278;50.784;4.630;2023-04-25T09:06:32;11.40;99.90
26655;DHT22;14278;50.784;4.630;2023-04-25T09:09:07;11.20;99.90
26655;DHT22;14278;50.784;4.630;2023-04-25T09:11:35;11.00;99.90
26655;DHT22;14278;50.784;4.630;2023-04-25T09:19:23;11.90;99.90
26655;DHT22;14278;50.784;4.630;2023-04-25T09:21:53;13.40;99.90
26655;DHT22;14278;50.784;4.630;2023-04-25T09:24:36;15.10;99.90
26655;DHT22;14278;50.784;4.630;2023-04-25T09:27:09;15.70;99.90
26655;DHT22;14278;50.784;4.630;2023-04-25T09:29:37;15.60;99.90
26655;DHT22;14278;50.784;4.630;2023-04-25T09:32:22;14.30;99.90
26655;DHT22;14278;50.784;4.630;2023-04-25T09:34:51;14.80;99.90
26655;DHT22;14278;50.784;4.630;2023-04-25T09:37:26;15.20;99.90
26655;DHT22;14278;50.784;4.630;2023-04-25T09:39:57;15.80;99.90
26655;DHT22;14278;50.784;4.630;2023-04-25T09:42:25;16.20;99.90
26655;DHT22;14278;50.784;4.630;2023-04-25T09:44:56;16.60;99.90
26655;DHT22;14278;50.784;4.630;2023-04-25T09:47:24;16.50;99.90
26655;DHT22;14278;50.784;4.630;2023-04-25T09:49:51;15.90;99.90
26655;DHT22;14278;50.784;4.630;2023-04-25T09:52:21;15.70;99.90
26655;DHT22;14278;50.784;4.630;2023-04-25T09:54:48;15.00;99.90
26655;DHT22;14278;50.784;4.630;2023-04-25T09:57:21;14.20;99.90
26655;DHT22;14278;50.784;4.630;2023-04-25T09:59:51;13.90;99.90
26655;DHT22;14278;50.784;4.630;2023-04-25T10:02:19;13.70;99.90
26655;DHT22;14278;50.784;4.630;2023-04-25T10:04:48;13.10;99.90
26655;DHT22;14278;50.784;4.630;2023-04-25T10:07:18;11.90;99.90
26655;DHT22;14278;50.784;4.630;2023-04-25T10:09:48;11.50;99.90
26655;DHT22;14278;50.784;4.630;2023-04-25T10:12:16;11.40;99.90
26655;DHT22;14278;50.784;4.630;2023-04-25T10:14:42;11.10;99.90
26655;DHT22;14278;50.784;4.630;2023-04-25T10:17:10;11.70;99.90
26655;DHT22;14278;50.784;4.630;2023-04-25T10:19:37;12.60;99.90
26655;DHT22;14278;50.784;4.630;2023-04-25T10:24:35;14.30;99.90
26655;DHT22;14278;50.784;4.630;2023-04-25T10:27:02;15.00;99.90
26655;DHT22;14278;50.784;4.630;2023-04-25T10:29:28;15.50;99.90
26655;DHT22;14278;50.784;4.630;2023-04-25T10:31:54;16.80;99.90
26655;DHT22;14278;50.784;4.630;2023-04-25T10:34:24;17.20;99.90
26655;DHT22;14278;50.784;4.630;2023-04-25T10:37:03;17.20;99.90
26655;DHT22;14278;50.784;4.630;2023-04-25T10:39:29;16.40;99.90
26655;DHT22;14278;50.784;4.630;2023-04-25T10:41:58;16.90;99.90
26655;DHT22;14278;50.784;4.630;2023-04-25T10:44:28;16.90;99.90
26655;DHT22;14278;50.784;4.630;2023-04-25T10:47:07;16.20;99.90
26655;DHT22;14278;50.784;4.630;2023-04-25T10:49:43;15.90;99.90
26655;DHT22;14278;50.784;4.630;2023-04-25T10:52:17;15.20;99.90
26655;DHT22;14278;50.784;4.630;2023-04-25T10:54:52;15.00;99.90
26655;DHT22;14278;50.784;4.630;2023-04-25T10:57:38;16.10;99.90
26655;DHT22;14278;50.784;4.630;2023-04-25T11:00:05;18.60;99.90
26655;DHT22;14278;50.784;4.630;2023-04-25T11:02:32;18.40;99.90
26655;DHT22;14278;50.784;4.630;2023-04-25T11:05:02;20.80;99.90
26655;DHT22;14278;50.784;4.630;2023-04-25T11:07:39;20.20;99.90
26655;DHT22;14278;50.784;4.630;2023-04-25T11:10:09;18.90;99.90
26655;DHT22;14278;50.784;4.630;2023-04-25T11:12:35;18.20;99.90
26655;DHT22;14278;50.784;4.630;2023-04-25T11:15:03;17.00;99.90
26655;DHT22;14278;50.784;4.630;2023-04-25T11:17:29;17.10;99.90
26655;DHT22;14278;50.784;4.630;2023-04-25T11:19:55;17.20;99.90
26655;DHT22;14278;50.784;4.630;2023-04-25T11:22:22;16.20;99.90
26655;DHT22;14278;50.784;4.630;2023-04-25T11:24:48;16.80;99.90
26655;DHT22;14278;50.784;4.630;2023-04-25T11:27:14;17.50;99.90
26655;DHT22;14278;50.784;4.630;2023-04-25T11:29:40;17.30;99.90
26655;DHT22;14278;50.784;4.630;2023-04-25T11:32:07;16.90;99.90
26655;DHT22;14278;50.784;4.630;2023-04-25T11:34:33;16.90;99.90
26655;DHT22;14278;50.784;4.630;2023-04-25T11:37:00;16.60;99.90
26655;DHT22;14278;50.784;4.630;2023-04-25T11:39:28;15.40;99.90
26655;DHT22;14278;50.784;4.630;2023-04-25T11:41:54;14.80;99.90
26655;DHT22;14278;50.784;4.630;2023-04-25T11:44:21;14.00;99.90
26655;DHT22;14278;50.784;4.630;2023-04-25T11:46:47;13.30;99.90
26655;DHT22;14278;50.784;4.630;2023-04-25T11:49:15;12.80;99.90
26655;DHT22;14278;50.784;4.630;2023-04-25T11:51:42;12.50;99.90
26655;DHT22;14278;50.784;4.630;2023-04-25T11:54:09;12.40;99.90
26655;DHT22;14278;50.784;4.630;2023-04-25T11:56:34;12.30;99.90
26655;DHT22;14278;50.784;4.630;2023-04-25T11:59:02;12.10;99.90
26655;DHT22;14278;50.784;4.630;2023-04-25T12:01:29;12.40;99.90
26655;DHT22;14278;50.784;4.630;2023-04-25T12:04:09;12.40;99.90
26655;DHT22;14278;50.784;4.630;2023-04-25T12:06:39;12.20;99.90
26655;DHT22;14278;50.784;4.630;2023-04-25T12:09:08;12.70;99.90
26655;DHT22;14278;50.784;4.630;2023-04-25T12:11:45;13.30;99.90
26655;DHT22;14278;50.784;4.630;2023-04-25T12:14:20;13.30;99.90
26655;DHT22;14278;50.784;4.630;2023-04-25T12:16:47;13.90;99.90
26655;DHT22;14278;50.784;4.630;2023-04-25T12:19:16;14.40;99.90
26655;DHT22;14278;50.784;4.630;2023-04-25T12:21:43;14.40;99.90
26655;DHT22;14278;50.784;4.630;2023-04-25T12:24:23;14.40;99.90
26655;DHT22;14278;50.784;4.630;2023-04-25T12:29:26;14.60;99.90
26655;DHT22;14278;50.784;4.630;2023-04-25T12:31:53;14.30;99.90
26655;DHT22;14278;50.784;4.630;2023-04-25T12:34:20;14.20;99.90
26655;DHT22;14278;50.784;4.630;2023-04-25T12:36:46;14.10;99.90
26655;DHT22;14278;50.784;4.630;2023-04-25T12:39:22;13.70;99.90
26655;DHT22;14278;50.784;4.630;2023-04-25T12:41:49;13.80;99.90
26655;DHT22;14278;50.784;4.630;2023-04-25T12:44:15;13.80;99.90
26655;DHT22;14278;50.784;4.630;2023-04-25T12:46:41;14.20;99.90
26655;DHT22;14278;50.784;4.630;2023-04-25T12:49:07;14.30;99.90
26655;DHT22;14278;50.784;4.630;2023-04-25T12:51:34;15.20;99.90
26655;DHT22;14278;50.784;4.630;2023-04-25T12:54:02;14.90;99.90
26655;DHT22;14278;50.784;4.630;2023-04-25T12:56:28;15.40;99.90
26655;DHT22;14278;50.784;4.630;2023-04-25T12:58:55;15.20;99.90
26655;DHT22;14278;50.784;4.630;2023-04-25T13:01:21;15.20;99.90
26655;DHT22;14278;50.784;4.630;2023-04-25T13:03:47;15.00;99.90
26655;DHT22;14278;50.784;4.630;2023-04-25T13:06:17;14.60;99.90
26655;DHT22;14278;50.784;4.630;2023-04-25T13:08:43;14.40;99.90
26655;DHT22;14278;50.784;4.630;2023-04-25T13:11:09;14.20;99.90
26655;DHT22;14278;50.784;4.630;2023-04-25T13:13:35;14.10;99.90
26655;DHT22;14278;50.784;4.630;2023-04-25T13:16:02;14.10;99.90
26655;DHT22;14278;50.784;4.630;2023-04-25T13:18:29;14.20;99.90
26655;DHT22;14278;50.784;4.630;2023-04-25T13:20:55;14.10;99.90
26655;DHT22;14278;50.784;4.630;2023-04-25T13:23:21;14.30;99.90
26655;DHT22;14278;50.784;4.630;2023-04-25T13:25:47;14.40;99.90
26655;DHT22;14278;50.784;4.630;2023-04-25T13:28:13;14.20;99.90
26655;DHT22;14278;50.784;4.630;2023-04-25T13:30:40;14.50;99.90
26655;DHT22;14278;50.784;4.630;2023-04-25T13:33:06;14.60;99.90
26655;DHT22;14278;50.784;4.630;2023-04-25T13:35:33;14.30;99.90
26655;DHT22;14278;50.784;4.630;2023-04-25T13:37:59;14.60;99.90
26655;DHT22;14278;50.784;4.630;2023-04-25T13:40:25;14.60;99.90
26655;DHT22;14278;50.784;4.630;2023-04-25T13:42:52;14.40;99.90
26655;DHT22;14278;50.784;4.630;2023-04-25T13:45:19;14.30;99.90
26655;DHT22;14278;50.784;4.630;2023-04-25T13:47:45;14.70;99.90
26655;DHT22;14278;50.784;4.630;2023-04-25T13:50:11;14.80;99.90
26655;DHT22;14278;50.784;4.630;2023-04-25T13:52:37;14.80;99.90
26655;DHT22;14278;50.784;4.630;2023-04-25T13:55:03;14.60;99.90
26655;DHT22;14278;50.784;4.630;2023-04-25T13:57:32;14.20;99.90
26655;DHT22;14278;50.784;4.630;2023-04-25T13:59:58;13.80;99.90
26655;DHT22;14278;50.784;4.630;2023-04-25T14:02:25;13.90;99.90
26655;DHT22;14278;50.784;4.630;2023-04-25T14:04:51;14.20;99.90
26655;DHT22;14278;50.784;4.630;2023-04-25T14:07:18;14.40;99.90
26655;DHT22;14278;50.784;4.630;2023-04-25T14:09:46;14.20;99.90
26655;DHT22;14278;50.784;4.630;2023-04-25T14:12:12;14.00;99.90
26655;DHT22;14278;50.784;4.630;2023-04-25T14:14:38;14.40;99.90
26655;DHT22;14278;50.784;4.630;2023-04-25T14:17:04;14.80;99.90
26655;DHT22;14278;50.784;4.630;2023-04-25T14:19:30;14.90;99.90
26655;DHT22;14278;50.784;4.630;2023-04-25T14:21:56;15.10;99.90
26655;DHT22;14278;50.784;4.630;2023-04-25T14:24:21;14.80;99.90
26655;DHT22;14278;50.784;4.630;2023-04-25T14:26:47;14.50;99.90
26655;DHT22;14278;50.784;4.630;2023-04-25T14:29:13;14.00;99.90
26655;DHT22;14278;50.784;4.630;2023-04-25T14:31:40;14.00;99.90
26655;DHT22;14278;50.784;4.630;2023-04-25T14:34:06;14.40;99.90
26655;DHT22;14278;50.784;4.630;2023-04-25T14:36:33;14.80;99.90
26655;DHT22;14278;50.784;4.630;2023-04-25T14:38:59;14.80;99.90
26655;DHT22;14278;50.784;4.630;2023-04-25T14:41:25;14.50;99.90
26655;DHT22;14278;50.784;4.630;2023-04-25T14:43:52;14.80;99.90
26655;DHT22;14278;50.784;4.630;2023-04-25T14:46:19;14.60;99.90
26655;DHT22;14278;50.784;4.630;2023-04-25T14:48:45;14.70;99.90
26655;DHT22;14278;50.784;4.630;2023-04-25T14:51:11;14.40;99.90
26655;DHT22;14278;50.784;4.630;2023-04-25T14:53:37;14.30;99.90
26655;DHT22;14278;50.784;4.630;2023-04-25T14:56:03;14.70;99.90
26655;DHT22;14278;50.784;4.630;2023-04-25T14:58:29;14.80;99.90
26655;DHT22;14278;50.784;4.630;2023-04-25T15:00:55;15.00;99.90
26655;DHT22;14278;50.784;4.630;2023-04-25T15:03:21;14.90;99.90
26655;DHT22;14278;50.784;4.630;2023-04-25T15:05:47;15.10;99.90
26655;DHT22;14278;50.784;4.630;2023-04-25T15:08:13;14.60;99.90
26655;DHT22;14278;50.784;4.630;2023-04-25T15:10:39;14.90;99.90
26655;DHT22;14278;50.784;4.630;2023-04-25T15:13:05;14.80;99.90
26655;DHT22;14278;50.784;4.630;2023-04-25T15:15:31;15.00;99.90
26655;DHT22;14278;50.784;4.630;2023-04-25T15:17:57;15.30;99.90
26655;DHT22;14278;50.784;4.630;2023-04-25T15:25:27;15.60;99.90
26655;DHT22;14278;50.784;4.630;2023-04-25T15:27:54;15.60;99.90
26655;DHT22;14278;50.784;4.630;2023-04-25T15:30:20;15.40;99.90
26655;DHT22;14278;50.784;4.630;2023-04-25T15:32:46;15.10;99.90
26655;DHT22;14278;50.784;4.630;2023-04-25T15:35:13;15.20;99.90
26655;DHT22;14278;50.784;4.630;2023-04-25T15:37:39;15.00;99.90
26655;DHT22;14278;50.784;4.630;2023-04-25T15:40:14;15.00;99.90
26655;DHT22;14278;50.784;4.630;2023-04-25T15:42:42;15.40;99.90
26655;DHT22;14278;50.784;4.630;2023-04-25T15:45:09;15.70;99.90
26655;DHT22;14278;50.784;4.630;2023-04-25T15:47:36;15.20;99.90
26655;DHT22;14278;50.784;4.630;2023-04-25T15:50:03;15.00;99.90